Weather at St Elizabeth Hospital Heliport

Public forecast

Using degrees Fahrenheit for public forecast. Weather courtesy of forecast.io.

Closest aviation weather report (METAR) to St Elizabeth Hospital Heliport

Closest report is Red Wing Regional Airport, 22.3 nm (41.2 km) WNW. Retrieved 2021/06/23 02:35 UTC (6 minutes ago):

KRGK 230235Z AUTO 10004KT 10SM CLR 18/08 A2986 RMK AO2

Closest aviation forecast (TAF) to St Elizabeth Hospital Heliport

Forecast is more than 12 hours old.

Closest forecast is Red Wing Regional Airport, 22.3 nm (41.2 km) WNW. Retrieved 2018/02/05 00:21 UTC (3 years ago):

TAF KRGK 052320Z 0600/0624 27008KT P6SM FEW025 BKN035 FM060200 30007KT P6SM FEW200 FM061100 VRB03KT P6SM FEW250 FM062000 23004KT P6SM BKN250 AMD NOT SKED